createdAt,value
2018-09-29T00:02:24.375Z,1.20
2018-09-29T00:04:53.052Z,2.20
2018-09-29T00:07:21.738Z,11.30
2018-09-29T00:09:50.482Z,1.70
2018-09-29T00:12:19.214Z,1.10
2018-09-29T00:14:48.157Z,1.00
2018-09-29T00:17:16.913Z,1.20
2018-09-29T00:19:45.617Z,1.03
2018-09-29T00:22:14.529Z,1.90
2018-09-29T00:24:43.172Z,1.50
2018-09-29T00:27:11.866Z,1.10
2018-09-29T00:29:40.870Z,1.50
2018-09-29T00:32:09.523Z,1.47
2018-09-29T00:34:38.225Z,1.20
2018-09-29T00:37:07.046Z,1.67
2018-09-29T00:39:35.701Z,1.40
2018-09-29T00:42:04.362Z,1.40
2018-09-29T00:44:33.092Z,3.03
2018-09-29T00:47:01.842Z,1.60
2018-09-29T00:49:30.645Z,1.43
2018-09-29T00:51:59.570Z,1.27
2018-09-29T00:54:28.317Z,1.80
2018-09-29T00:56:57.070Z,1.40
2018-09-29T00:59:26.142Z,1.20
2018-09-29T01:01:54.786Z,1.53
2018-09-29T01:04:23.473Z,1.50
2018-09-29T01:06:52.302Z,2.77
2018-09-29T01:09:21.021Z,1.07
2018-09-29T01:11:49.726Z,1.70
2018-09-29T01:14:18.789Z,1.60
2018-09-29T01:16:47.541Z,1.77
2018-09-29T01:19:16.322Z,2.30
2018-09-29T01:21:45.225Z,1.53
2018-09-29T01:24:14.254Z,1.80
2018-09-29T01:26:42.989Z,1.90
2018-09-29T01:29:11.839Z,1.30
2018-09-29T01:31:40.731Z,1.40
2018-09-29T01:34:09.689Z,1.60
2018-09-29T01:36:38.506Z,1.90
2018-09-29T01:39:08.997Z,1.30
2018-09-29T01:41:37.661Z,1.30
2018-09-29T01:44:06.478Z,1.73
2018-09-29T01:46:35.145Z,2.17
2018-09-29T01:49:04.097Z,1.07
2018-09-29T01:51:33.290Z,1.77
2018-09-29T01:54:01.911Z,2.57
2018-09-29T01:56:31.075Z,1.40
2018-09-29T01:58:59.872Z,1.30
2018-09-29T02:01:28.514Z,1.53
2018-09-29T02:03:57.325Z,1.63
2018-09-29T02:06:25.995Z,1.60
2018-09-29T02:08:54.709Z,1.20
2018-09-29T02:11:23.514Z,1.50
2018-09-29T02:13:52.356Z,2.20
2018-09-29T02:16:21.040Z,2.23
2018-09-29T02:18:50.032Z,1.43
2018-09-29T02:21:18.811Z,1.33
2018-09-29T02:23:47.693Z,1.67
2018-09-29T02:26:16.589Z,1.30
2018-09-29T02:28:45.396Z,1.10
2018-09-29T02:31:14.219Z,1.30
2018-09-29T02:33:43.309Z,1.53
2018-09-29T02:36:11.969Z,1.50
2018-09-29T02:38:40.666Z,0.90
2018-09-29T02:41:09.579Z,3.80
2018-09-29T02:43:38.267Z,1.20
2018-09-29T02:46:06.970Z,1.37
2018-09-29T02:48:35.948Z,1.30
2018-09-29T02:51:04.801Z,1.57
2018-09-29T02:53:33.637Z,1.20
2018-09-29T02:56:02.519Z,2.20
2018-09-29T02:58:31.333Z,1.27
2018-09-29T03:01:00.095Z,1.20
2018-09-29T03:03:28.924Z,1.90
2018-09-29T03:05:57.677Z,2.20
2018-09-29T03:08:26.358Z,1.33
2018-09-29T03:10:55.045Z,1.70
2018-09-29T03:13:23.745Z,1.50
2018-09-29T03:15:52.506Z,2.00
2018-09-29T03:18:21.295Z,1.60
2018-09-29T03:20:49.980Z,1.60
2018-09-29T03:23:18.770Z,1.87
2018-09-29T03:25:47.455Z,1.90
2018-09-29T03:28:16.168Z,2.17
2018-09-29T03:30:44.833Z,1.20
2018-09-29T03:33:13.550Z,1.77
2018-09-29T03:35:42.212Z,1.80
2018-09-29T03:38:10.882Z,1.20
2018-09-29T03:40:39.897Z,1.37
2018-09-29T03:43:08.566Z,2.00
2018-09-29T03:45:37.256Z,2.30
2018-09-29T03:48:06.067Z,1.40
2018-09-29T03:50:34.856Z,1.57
2018-09-29T03:53:03.631Z,2.30
2018-09-29T03:55:32.433Z,2.10
2018-09-29T03:58:01.059Z,1.80
2018-09-29T04:00:30.043Z,1.60
2018-09-29T04:02:58.917Z,1.60
2018-09-29T04:05:27.607Z,1.83
2018-09-29T04:07:56.349Z,2.07
2018-09-29T04:10:25.080Z,1.53
2018-09-29T04:12:53.733Z,1.43
2018-09-29T04:15:22.561Z,1.83
2018-09-29T04:17:51.303Z,1.30
2018-09-29T04:20:20.216Z,1.20
2018-09-29T04:22:48.967Z,1.23
2018-09-29T04:25:17.745Z,1.23
2018-09-29T04:27:46.493Z,1.93
2018-09-29T04:30:15.297Z,1.37
2018-09-29T04:32:44.159Z,2.10
2018-09-29T04:35:12.826Z,1.80
2018-09-29T04:37:41.577Z,1.67
2018-09-29T04:40:10.389Z,2.27
2018-09-29T04:42:39.082Z,1.33
2018-09-29T04:45:07.985Z,1.60
2018-09-29T04:47:36.777Z,1.30
2018-09-29T04:50:05.657Z,1.50
2018-09-29T04:52:34.445Z,1.73
2018-09-29T04:55:03.085Z,1.43
2018-09-29T04:57:32.042Z,1.73
2018-09-29T05:00:00.709Z,1.40
2018-09-29T05:02:29.489Z,1.80
2018-09-29T05:04:58.145Z,2.00
2018-09-29T05:07:26.885Z,1.60
2018-09-29T05:09:55.592Z,1.40
2018-09-29T05:12:24.353Z,1.40
2018-09-29T05:14:53.085Z,1.27
2018-09-29T05:17:21.921Z,1.37
2018-09-29T05:19:50.573Z,1.97
2018-09-29T05:22:19.424Z,1.50
2018-09-29T05:24:48.189Z,2.57
2018-09-29T05:27:16.857Z,1.90
2018-09-29T05:29:45.701Z,1.70
2018-09-29T05:32:14.357Z,1.20
2018-09-29T05:34:43.149Z,2.20
2018-09-29T05:37:12.369Z,1.90
2018-09-29T05:39:41.017Z,2.00
2018-09-29T05:42:09.717Z,1.60
2018-09-29T05:44:38.630Z,2.20
2018-09-29T05:47:07.286Z,2.00
2018-09-29T05:49:36.070Z,1.80
2018-09-29T05:52:04.934Z,1.47
2018-09-29T05:54:34.004Z,2.13
2018-09-29T05:57:03.209Z,2.03
2018-09-29T05:59:31.901Z,1.57
2018-09-29T06:02:00.593Z,2.10
2018-09-29T06:04:29.838Z,1.43
2018-09-29T06:06:58.681Z,2.17
2018-09-29T06:09:27.352Z,1.87
2018-09-29T06:11:56.198Z,2.17
2018-09-29T06:14:24.910Z,1.60
2018-09-29T06:16:53.563Z,1.93
2018-09-29T06:19:22.501Z,2.13
2018-09-29T06:21:51.260Z,2.10
2018-09-29T06:24:20.310Z,1.73
2018-09-29T06:26:49.001Z,1.50
2018-09-29T06:29:17.680Z,1.67
2018-09-29T06:31:46.410Z,1.97
2018-09-29T06:34:15.607Z,2.10
2018-09-29T06:36:44.381Z,1.80
2018-09-29T06:39:13.113Z,1.47
2018-09-29T06:41:41.780Z,1.73
2018-09-29T06:44:10.429Z,2.13
2018-09-29T06:46:39.105Z,2.00
2018-09-29T06:49:07.738Z,2.00
2018-09-29T06:51:36.365Z,1.80
2018-09-29T06:54:05.236Z,1.60
2018-09-29T06:56:33.873Z,1.57
2018-09-29T06:59:02.681Z,2.03
2018-09-29T07:01:31.410Z,2.00
2018-09-29T07:04:00.084Z,2.07
2018-09-29T07:06:29.225Z,1.90
2018-09-29T07:08:57.909Z,2.57
2018-09-29T07:11:26.642Z,2.07
2018-09-29T07:13:55.748Z,1.63
2018-09-29T07:16:24.413Z,1.80
2018-09-29T07:18:53.327Z,1.73
2018-09-29T07:21:22.092Z,1.53
2018-09-29T07:23:50.725Z,2.03
2018-09-29T07:26:19.486Z,1.87
2018-09-29T07:28:48.193Z,1.87
2018-09-29T07:31:17.248Z,1.90
2018-09-29T07:33:45.945Z,1.40
2018-09-29T07:36:14.621Z,1.30
2018-09-29T07:38:43.559Z,2.87
2018-09-29T07:41:12.383Z,2.03
2018-09-29T07:43:41.348Z,1.67
2018-09-29T07:46:10.084Z,1.80
2018-09-29T07:48:38.726Z,2.33
2018-09-29T07:51:07.465Z,1.80
2018-09-29T07:53:36.175Z,1.67
2018-09-29T07:56:05.638Z,1.50
2018-09-29T07:58:35.978Z,1.80
2018-09-29T08:01:04.679Z,1.80
2018-09-29T08:03:33.458Z,1.47
2018-09-29T08:06:02.258Z,1.50
2018-09-29T08:08:31.176Z,1.53
2018-09-29T08:10:59.832Z,1.23
2018-09-29T08:13:28.513Z,2.27
2018-09-29T08:15:57.432Z,1.47
2018-09-29T08:18:26.166Z,1.60
2018-09-29T08:20:54.838Z,1.27
2018-09-29T08:23:23.840Z,1.33
2018-09-29T08:25:52.549Z,1.07
2018-09-29T08:28:21.361Z,1.10
2018-09-29T08:30:50.038Z,1.30
2018-09-29T08:33:18.740Z,1.53
2018-09-29T08:35:47.740Z,1.03
2018-09-29T08:38:16.600Z,1.10
2018-09-29T08:40:45.309Z,1.10
2018-09-29T08:43:14.129Z,1.40
2018-09-29T08:45:42.925Z,1.10
2018-09-29T08:48:11.614Z,1.30
2018-09-29T08:50:40.506Z,0.90
2018-09-29T08:53:09.266Z,1.63
2018-09-29T08:55:37.970Z,1.27
2018-09-29T08:58:06.659Z,1.07
2018-09-29T09:00:35.623Z,1.00
2018-09-29T09:03:04.389Z,1.20
2018-09-29T09:05:33.170Z,1.10
2018-09-29T09:08:02.148Z,1.27
2018-09-29T09:10:31.059Z,1.17
2018-09-29T09:12:59.774Z,1.00
2018-09-29T09:15:28.529Z,1.43
2018-09-29T09:17:57.207Z,1.20
2018-09-29T09:20:25.928Z,1.47
2018-09-29T09:22:54.750Z,1.00
2018-09-29T09:25:23.423Z,1.00
2018-09-29T09:27:52.053Z,0.93
2018-09-29T09:30:20.988Z,1.00
2018-09-29T09:32:49.796Z,1.13
2018-09-29T09:35:18.569Z,1.20
2018-09-29T09:37:47.249Z,1.37
2018-09-29T09:40:15.926Z,1.10
2018-09-29T09:42:44.741Z,1.03
2018-09-29T09:45:13.536Z,1.50
2018-09-29T09:47:42.201Z,1.20
2018-09-29T09:50:10.931Z,1.57
2018-09-29T09:52:39.934Z,1.10
2018-09-29T09:55:08.881Z,1.53
2018-09-29T09:57:37.701Z,0.77
2018-09-29T10:00:06.574Z,1.20
2018-09-29T10:02:40.454Z,1.30
2018-09-29T10:05:09.254Z,1.00
2018-09-29T10:07:38.190Z,1.17
2018-09-29T10:10:06.973Z,1.20
2018-09-29T10:12:35.727Z,1.20
2018-09-29T10:15:04.715Z,1.30
2018-09-29T10:17:33.613Z,1.07
2018-09-29T10:20:02.750Z,1.70
2018-09-29T10:22:31.478Z,1.03
2018-09-29T10:25:00.137Z,1.13
2018-09-29T10:27:29.023Z,1.13
2018-09-29T10:29:57.702Z,0.80
2018-09-29T10:32:26.783Z,1.20
2018-09-29T10:34:55.649Z,0.90
2018-09-29T10:37:24.517Z,1.27
2018-09-29T10:39:53.250Z,0.90
2018-09-29T10:42:21.950Z,1.13
2018-09-29T10:44:50.605Z,0.60
2018-09-29T10:47:19.409Z,1.67
2018-09-29T10:49:51.024Z,0.60
2018-09-29T10:52:19.819Z,1.20
2018-09-29T10:54:48.950Z,1.00
2018-09-29T10:57:17.705Z,0.90
2018-09-29T10:59:46.554Z,1.47
2018-09-29T11:02:15.274Z,0.93
2018-09-29T11:04:43.967Z,1.00
2018-09-29T11:07:12.993Z,1.10
2018-09-29T11:09:41.651Z,0.80
2018-09-29T11:12:10.369Z,0.87
2018-09-29T11:14:39.248Z,0.97
2018-09-29T11:17:07.926Z,0.80
2018-09-29T11:19:36.729Z,1.40
2018-09-29T11:22:05.634Z,1.13
2018-09-29T11:24:34.711Z,1.00
2018-09-29T11:27:03.596Z,1.37
2018-09-29T11:29:32.394Z,0.70
2018-09-29T11:32:01.195Z,1.03
2018-09-29T11:34:29.869Z,1.10
2018-09-29T11:36:58.721Z,0.80
2018-09-29T11:39:27.522Z,0.90
2018-09-29T11:41:56.364Z,1.33
2018-09-29T11:44:25.448Z,1.40
2018-09-29T11:46:54.150Z,1.20
2018-09-29T11:49:22.882Z,1.30
2018-09-29T11:51:51.708Z,1.03
2018-09-29T11:54:20.397Z,1.07
2018-09-29T11:56:49.178Z,0.90
2018-09-29T11:59:18.073Z,1.10
2018-09-29T12:01:46.850Z,0.90
2018-09-29T12:04:15.610Z,1.90
2018-09-29T12:06:44.413Z,1.13
2018-09-29T12:09:14.085Z,1.33
2018-09-29T12:11:43.333Z,1.17
2018-09-29T12:14:12.032Z,1.03
2018-09-29T12:16:40.808Z,1.60
2018-09-29T12:19:09.496Z,0.80
2018-09-29T12:21:38.153Z,0.90
2018-09-29T12:24:06.991Z,1.10
2018-09-29T12:26:36.213Z,0.80
2018-09-29T12:29:04.889Z,1.20
2018-09-29T12:31:33.640Z,1.50
2018-09-29T12:34:02.506Z,0.90
2018-09-29T12:36:32.726Z,1.37
2018-09-29T12:39:01.671Z,0.87
2018-09-29T12:41:30.462Z,0.80
2018-09-29T12:43:59.165Z,1.30
2018-09-29T12:46:28.301Z,1.47
2018-09-29T12:48:57.006Z,1.03
2018-09-29T12:51:26.062Z,1.23
2018-09-29T12:53:54.756Z,1.07
2018-09-29T12:56:23.386Z,1.00
2018-09-29T12:58:52.164Z,1.27
2018-09-29T13:01:20.983Z,1.03
2018-09-29T13:03:49.854Z,0.83
2018-09-29T13:06:18.766Z,0.93
2018-09-29T13:08:47.553Z,0.90
2018-09-29T13:11:16.234Z,1.40
2018-09-29T13:13:44.978Z,1.20
2018-09-29T13:16:13.910Z,1.00
2018-09-29T13:18:42.570Z,1.10
2018-09-29T13:21:11.499Z,1.17
2018-09-29T13:23:40.258Z,0.90
2018-09-29T13:26:08.993Z,0.70
2018-09-29T13:28:37.853Z,0.90
2018-09-29T13:31:06.598Z,1.63
2018-09-29T13:33:35.361Z,1.00
2018-09-29T13:36:04.229Z,0.90
2018-09-29T13:38:32.964Z,1.17
2018-09-29T13:41:01.666Z,1.00
2018-09-29T13:43:30.362Z,0.67
2018-09-29T13:45:59.316Z,1.03
2018-09-29T13:48:28.382Z,1.13
2018-09-29T13:50:57.070Z,1.10
2018-09-29T13:53:25.821Z,0.90
2018-09-29T13:55:54.643Z,1.20
2018-09-29T13:58:23.603Z,1.10
2018-09-29T14:00:52.624Z,1.13
2018-09-29T14:03:21.379Z,1.17
2018-09-29T14:05:50.070Z,1.00
2018-09-29T14:08:18.986Z,1.40
2018-09-29T14:10:47.869Z,1.10
2018-09-29T14:13:17.295Z,1.40
2018-09-29T14:15:46.048Z,0.93
2018-09-29T14:18:14.709Z,1.20
2018-09-29T14:20:43.379Z,1.20
2018-09-29T14:23:12.023Z,0.80
2018-09-29T14:25:40.857Z,1.30
2018-09-29T14:28:16.245Z,1.30
2018-09-29T14:30:45.259Z,1.53
2018-09-29T14:33:14.237Z,1.30
2018-09-29T14:35:42.890Z,1.00
2018-09-29T14:38:11.965Z,1.00
2018-09-29T14:40:40.739Z,1.00
2018-09-29T14:43:09.630Z,1.33
2018-09-29T14:45:38.661Z,1.33
2018-09-29T14:48:07.539Z,1.10
2018-09-29T14:50:36.361Z,1.57
2018-09-29T14:53:05.223Z,1.03
2018-09-29T14:55:34.242Z,1.37
2018-09-29T14:58:02.970Z,1.57
2018-09-29T15:00:31.736Z,1.47
2018-09-29T15:03:00.629Z,1.20
2018-09-29T15:05:29.306Z,1.27
2018-09-29T15:07:58.139Z,1.17
2018-09-29T15:10:26.939Z,1.00
2018-09-29T15:12:55.842Z,1.13
2018-09-29T15:15:24.543Z,0.93
2018-09-29T15:17:53.250Z,1.10
2018-09-29T15:20:22.181Z,1.10
2018-09-29T15:22:50.945Z,1.03
2018-09-29T15:25:19.667Z,1.40
2018-09-29T15:27:48.748Z,1.40
2018-09-29T15:30:17.442Z,1.10
2018-09-29T15:32:46.073Z,2.10
2018-09-29T15:35:14.823Z,1.03
2018-09-29T15:37:43.604Z,1.13
2018-09-29T15:40:12.399Z,1.03
2018-09-29T15:42:41.195Z,1.17
2018-09-29T15:45:10.546Z,0.70
2018-09-29T15:47:39.277Z,0.90
2018-09-29T15:50:08.653Z,1.20
2018-09-29T15:52:37.539Z,1.10
2018-09-29T15:55:06.624Z,1.20
2018-09-29T15:57:35.534Z,1.80
2018-09-29T16:00:04.530Z,1.27
2018-09-29T16:02:33.417Z,1.77
2018-09-29T16:05:02.206Z,2.50
2018-09-29T16:07:30.997Z,1.50
2018-09-29T16:09:59.929Z,1.37
2018-09-29T16:12:28.908Z,1.67
2018-09-29T16:14:57.897Z,1.60
2018-09-29T16:17:27.015Z,1.30
2018-09-29T16:19:55.806Z,1.20
2018-09-29T16:22:24.524Z,1.67
2018-09-29T16:24:53.365Z,1.10
2018-09-29T16:27:22.151Z,1.50
2018-09-29T16:29:50.809Z,1.20
2018-09-29T16:32:20.032Z,0.90
2018-09-29T16:34:48.805Z,1.20
2018-09-29T16:37:17.805Z,1.20
2018-09-29T16:39:46.509Z,1.73
2018-09-29T16:42:15.249Z,1.33
2018-09-29T16:44:44.084Z,1.50
2018-09-29T16:47:12.810Z,1.57
2018-09-29T16:49:41.649Z,1.30
2018-09-29T16:52:10.575Z,1.03
2018-09-29T16:54:39.299Z,1.00
2018-09-29T16:57:08.121Z,1.10
2018-09-29T16:59:36.921Z,1.30
2018-09-29T17:02:05.593Z,1.10
2018-09-29T17:04:34.472Z,1.00
2018-09-29T17:07:03.087Z,1.03
2018-09-29T17:09:32.181Z,1.20
2018-09-29T17:12:00.926Z,1.30
2018-09-29T17:14:29.613Z,1.20
2018-09-29T17:16:58.313Z,1.53
2018-09-29T17:19:27.033Z,1.00
2018-09-29T17:21:55.872Z,1.73
2018-09-29T17:24:24.508Z,1.43
2018-09-29T17:26:53.282Z,1.30
2018-09-29T17:29:21.981Z,1.40
2018-09-29T17:31:50.826Z,1.93
2018-09-29T17:34:19.761Z,1.90
2018-09-29T17:36:48.554Z,1.60
2018-09-29T17:39:17.333Z,1.63
2018-09-29T17:41:46.117Z,1.40
2018-09-29T17:44:14.774Z,1.30
2018-09-29T17:46:43.839Z,1.00
2018-09-29T17:49:12.489Z,1.10
2018-09-29T17:51:41.215Z,1.30
2018-09-29T17:54:09.947Z,2.27
2018-09-29T17:56:39.058Z,1.33
2018-09-29T17:59:08.235Z,1.47
2018-09-29T18:01:36.877Z,1.27
2018-09-29T18:04:05.938Z,1.20
2018-09-29T18:06:34.564Z,1.10
2018-09-29T18:09:03.811Z,1.17
2018-09-29T18:11:33.224Z,1.83
2018-09-29T18:14:01.878Z,1.30
2018-09-29T18:16:30.814Z,1.70
2018-09-29T18:18:59.523Z,1.37
2018-09-29T18:21:28.307Z,1.30
2018-09-29T18:23:57.434Z,1.30
2018-09-29T18:26:26.559Z,1.50
2018-09-29T18:28:55.683Z,1.50
2018-09-29T18:31:24.460Z,1.37
2018-09-29T18:33:53.158Z,1.30
2018-09-29T18:36:22.052Z,1.20
2018-09-29T18:38:51.054Z,1.73
2018-09-29T18:41:19.797Z,0.80
2018-09-29T18:43:48.477Z,1.20
2018-09-29T18:46:17.337Z,1.70
2018-09-29T18:48:46.123Z,1.20
2018-09-29T18:51:14.898Z,1.10
2018-09-29T18:53:43.677Z,1.00
2018-09-29T18:56:12.408Z,1.10
2018-09-29T18:58:41.113Z,1.67
2018-09-29T19:01:09.906Z,1.27
2018-09-29T19:03:38.626Z,1.53
2018-09-29T19:06:07.612Z,1.00
2018-09-29T19:08:36.436Z,1.60
2018-09-29T19:11:05.189Z,1.37
2018-09-29T19:13:33.933Z,1.10
2018-09-29T19:16:03.090Z,0.97
2018-09-29T19:18:31.760Z,1.23
2018-09-29T19:21:00.523Z,1.53
2018-09-29T19:23:29.203Z,1.40
2018-09-29T19:25:57.970Z,1.50
2018-09-29T19:28:26.640Z,0.97
2018-09-29T19:30:55.321Z,1.10
2018-09-29T19:33:24.094Z,1.53
2018-09-29T19:35:52.941Z,1.20
2018-09-29T19:38:21.805Z,1.40
2018-09-29T19:40:50.521Z,1.57
2018-09-29T19:43:19.218Z,1.30
2018-09-29T19:45:48.101Z,1.23
2018-09-29T19:48:16.721Z,1.73
2018-09-29T19:50:45.458Z,1.27
2018-09-29T19:53:14.185Z,1.30
2018-09-29T19:55:43.004Z,1.50
2018-09-29T19:58:11.737Z,1.40
2018-09-29T20:00:40.395Z,1.20
2018-09-29T20:03:09.109Z,1.40
2018-09-29T20:05:38.355Z,1.67
2018-09-29T20:08:07.144Z,1.43
2018-09-29T20:10:35.895Z,1.33
2018-09-29T20:13:04.593Z,1.70
2018-09-29T20:15:33.363Z,1.17
2018-09-29T20:18:02.098Z,1.60
2018-09-29T20:20:30.949Z,1.70
2018-09-29T20:22:59.733Z,1.20
2018-09-29T20:25:28.425Z,2.03
2018-09-29T20:27:57.358Z,2.00
2018-09-29T20:30:26.060Z,1.90
2018-09-29T20:32:54.799Z,2.00
2018-09-29T20:35:23.486Z,1.43
2018-09-29T20:37:52.158Z,1.83
2018-09-29T20:40:21.195Z,2.27
2018-09-29T20:42:49.883Z,1.60
2018-09-29T20:45:18.626Z,1.70
2018-09-29T20:47:47.685Z,2.10
2018-09-29T20:50:16.513Z,1.77
2018-09-29T20:52:45.598Z,1.40
2018-09-29T20:55:14.311Z,1.93
2018-09-29T20:57:43.131Z,1.57
2018-09-29T21:00:11.957Z,1.67
2018-09-29T21:02:40.714Z,2.40
2018-09-29T21:05:09.482Z,2.03
2018-09-29T21:07:38.210Z,1.60
2018-09-29T21:10:06.959Z,1.73
2018-09-29T21:12:35.869Z,2.33
2018-09-29T21:15:04.623Z,1.70
2018-09-29T21:17:33.254Z,1.60
2018-09-29T21:20:02.108Z,1.70
2018-09-29T21:22:30.846Z,1.67
2018-09-29T21:24:59.551Z,1.47
2018-09-29T21:27:28.253Z,1.80
2018-09-29T21:29:57.051Z,2.87
2018-09-29T21:32:25.726Z,2.43
2018-09-29T21:34:54.534Z,2.30
2018-09-29T21:37:23.243Z,3.70
2018-09-29T21:39:51.978Z,6.10
2018-09-29T21:42:20.672Z,4.00
2018-09-29T21:44:49.380Z,2.30
2018-09-29T21:47:18.030Z,2.90
2018-09-29T21:49:46.873Z,2.00
2018-09-29T21:52:15.569Z,2.70
2018-09-29T21:54:44.429Z,7.27
2018-09-29T21:57:13.139Z,1.83
2018-09-29T21:59:41.905Z,3.63
2018-09-29T22:02:10.714Z,2.60
2018-09-29T22:04:39.580Z,2.10
2018-09-29T22:07:08.248Z,2.07
2018-09-29T22:09:36.906Z,2.70
2018-09-29T22:12:05.567Z,2.37
2018-09-29T22:14:34.349Z,3.00
2018-09-29T22:17:03.345Z,3.37
2018-09-29T22:19:32.111Z,2.53
2018-09-29T22:22:01.106Z,2.20
2018-09-29T22:24:29.909Z,2.83
2018-09-29T22:26:58.562Z,2.93
2018-09-29T22:29:27.397Z,3.27
2018-09-29T22:31:56.193Z,3.90
2018-09-29T22:34:24.934Z,2.60
2018-09-29T22:36:53.677Z,2.87
2018-09-29T22:39:22.468Z,2.27
2018-09-29T22:41:51.345Z,2.57
2018-09-29T22:44:20.002Z,2.30
2018-09-29T22:46:48.724Z,2.43
2018-09-29T22:49:17.534Z,2.10
2018-09-29T22:51:46.327Z,1.70
2018-09-29T22:54:15.185Z,3.07
2018-09-29T22:56:43.933Z,2.17
2018-09-29T22:59:12.722Z,2.50
2018-09-29T23:01:41.472Z,2.10
2018-09-29T23:04:10.218Z,2.47
2018-09-29T23:06:39.014Z,5.70
2018-09-29T23:09:10.366Z,2.50
2018-09-29T23:11:39.070Z,4.23
2018-09-29T23:14:08.094Z,3.63
2018-09-29T23:16:36.861Z,4.03
2018-09-29T23:19:05.913Z,2.70
2018-09-29T23:21:34.597Z,3.60
2018-09-29T23:24:03.422Z,3.10
2018-09-29T23:26:32.160Z,2.40
2018-09-29T23:29:00.842Z,2.73
2018-09-29T23:31:29.519Z,6.30
2018-09-29T23:33:58.173Z,8.10
2018-09-29T23:36:26.891Z,18.53
2018-09-29T23:38:55.613Z,61.83
2018-09-29T23:41:24.390Z,170.87
2018-09-29T23:43:53.356Z,63.97
2018-09-29T23:46:22.119Z,12.60
2018-09-29T23:48:50.910Z,11.90
2018-09-29T23:51:19.897Z,27.83
2018-09-29T23:53:48.665Z,20.83
2018-09-29T23:56:17.682Z,17.40
2018-09-29T23:58:46.373Z,9.30
